Time;durP1;ratioP1;P1;durP2;ratioP2;P2;SDS_P1;SDS_P2;PMS_P1;PMS_P2;Temp;Humidity;BMP_temperature;BMP_pressure;BME280_temperature;BME280_humidity;BME280_pressure;Samples;Min_cycle;Max_cycle;Signal;HPM_P1;HPM_P2
2022/01/12 00:00:51;;;;;;;;;;;3.40;99.90;;;;;;5045653;28;19917;-76
2022/01/12 00:03:16;;;;;;;;;;;3.50;99.90;;;;;;5034635;28;19928;-77
2022/01/12 00:05:43;;;;;;;;;;;3.50;99.90;;;;;;5019604;28;20686;-76
2022/01/12 00:08:08;;;;;;;;;;;3.50;99.90;;;;;;5029025;28;19991;-77
2022/01/12 00:10:35;;;;;;;;;;;3.50;99.90;;;;;;5038221;28;20526;-77
2022/01/12 00:13:00;;;;;;;;;;;3.50;99.90;;;;;;5047987;28;19916;-76
2022/01/12 00:15:26;;;;;;;;;;;3.50;99.90;;;;;;5049673;28;19994;-77
2022/01/12 00:17:51;;;;;;;;;;;3.50;99.90;;;;;;5047468;28;19921;-76
2022/01/12 00:20:17;;;;;;;;;;;3.50;99.90;;;;;;5027597;28;19967;-76
2022/01/12 00:22:43;;;;;;;;;;;3.50;99.90;;;;;;5043342;28;20231;-76
2022/01/12 00:33:14;;;;;;;;;;;3.50;99.90;;;;;;5047012;28;19974;-76
2022/01/12 00:35:50;;;;;;;;;;;3.60;99.90;;;;;;5047419;28;20032;-76
2022/01/12 00:38:16;;;;;;;;;;;3.50;99.90;;;;;;5027194;28;19924;-77
2022/01/12 00:40:43;;;;;;;;;;;3.50;99.90;;;;;;5030683;28;19922;-76
2022/01/12 00:43:09;;;;;;;;;;;3.60;99.90;;;;;;5018535;28;19917;-77
2022/01/12 00:45:38;;;;;;;;;;;3.60;99.90;;;;;;5026023;28;19955;-76
2022/01/12 00:48:04;;;;;;;;;;;3.60;99.90;;;;;;5020097;28;20552;-77
2022/01/12 00:50:29;;;;;;;;;;;3.60;99.90;;;;;;5026620;28;20312;-76
2022/01/12 00:52:55;;;;;;;;;;;3.60;99.90;;;;;;5022922;28;19921;-76
2022/01/12 00:55:21;;;;;;;;;;;3.60;99.90;;;;;;5029365;28;20318;-76
2022/01/12 00:57:47;;;;;;;;;;;3.60;99.90;;;;;;5046788;28;19917;-76
2022/01/12 01:00:13;;;;;;;;;;;3.60;99.90;;;;;;5029152;28;19921;-76
2022/01/12 01:02:39;;;;;;;;;;;3.70;99.90;;;;;;5029190;28;19924;-76
2022/01/12 01:05:05;;;;;;;;;;;3.70;99.90;;;;;;5020503;28;19918;-76
2022/01/12 01:07:30;;;;;;;;;;;3.70;99.90;;;;;;5026504;28;19917;-76
2022/01/12 01:10:21;;;;;;;;;;;3.60;99.90;;;;;;5021488;28;19928;-76
2022/01/12 01:12:46;;;;;;;;;;;3.60;99.90;;;;;;5026963;28;20296;-76
2022/01/12 01:15:14;;;;;;;;;;;3.70;99.90;;;;;;5028795;28;20019;-76
2022/01/12 01:25:37;;;;;;;;;;;3.70;99.90;;;;;;5026883;28;19980;-76
2022/01/12 01:28:04;;;;;;;;;;;3.60;99.90;;;;;;5027792;28;19917;-77
2022/01/12 01:30:31;;;;;;;;;;;3.70;99.90;;;;;;5025136;28;19913;-76
2022/01/12 01:33:03;;;;;;;;;;;3.70;99.90;;;;;;5021763;28;20216;-77
2022/01/12 01:35:30;;;;;;;;;;;3.70;99.90;;;;;;5016406;28;19918;-77
2022/01/12 01:37:58;;;;;;;;;;;3.70;99.90;;;;;;5044285;28;19921;-77
2022/01/12 01:40:24;;;;;;;;;;;3.70;99.90;;;;;;5040748;28;19920;-76
2022/01/12 01:53:34;;;;;;;;;;;3.70;99.90;;;;;;5047440;28;20006;-76
2022/01/12 01:55:59;;;;;;;;;;;3.70;99.90;;;;;;5046430;28;19967;-76
2022/01/12 01:58:25;;;;;;;;;;;3.90;99.90;;;;;;5041777;28;19921;-76
2022/01/12 02:00:50;;;;;;;;;;;3.90;99.90;;;;;;5037602;28;19986;-76
2022/01/12 02:03:18;;;;;;;;;;;4.00;99.90;;;;;;5039383;28;19920;-76
2022/01/12 02:05:44;;;;;;;;;;;4.00;99.90;;;;;;5022662;28;19917;-76
2022/01/12 02:08:10;;;;;;;;;;;4.00;99.90;;;;;;5010318;28;19990;-75
2022/01/12 02:10:35;;;;;;;;;;;4.00;99.90;;;;;;5030842;28;20325;-76
2022/01/12 02:13:01;;;;;;;;;;;4.00;99.90;;;;;;5043498;28;19931;-76
2022/01/12 02:15:27;;;;;;;;;;;4.00;99.90;;;;;;5036683;28;19966;-76
2022/01/12 02:18:17;;;;;;;;;;;4.00;99.90;;;;;;5037683;28;19917;-76
2022/01/12 02:40:08;;;;;;;;;;;3.90;99.90;;;;;;5045796;28;19967;-76
2022/01/12 02:42:34;;;;;;;;;;;3.90;99.90;;;;;;5027280;28;19913;-76
2022/01/12 02:50:54;;;;;;;;;;;3.90;99.90;;;;;;5018182;28;19921;-76
2022/01/12 02:53:39;;;;;;;;;;;3.90;99.90;;;;;;5014103;28;20226;-75
2022/01/12 02:56:04;;;;;;;;;;;4.00;99.90;;;;;;5027136;28;19918;-76
2022/01/12 02:58:30;;;;;;;;;;;4.00;99.90;;;;;;5045274;28;19913;-76
2022/01/12 03:01:29;;;;;;;;;;;4.00;99.90;;;;;;5046891;28;19920;-76
2022/01/12 03:03:44;;;;;;;;;;;4.00;99.90;;;;;;5045496;28;19921;-76
2022/01/12 03:06:15;;;;;;;;;;;4.00;99.90;;;;;;5032084;28;19918;-76
2022/01/12 03:08:40;;;;;;;;;;;4.00;99.90;;;;;;5014542;28;19918;-76
2022/01/12 03:11:07;;;;;;;;;;;4.00;99.90;;;;;;5042721;28;19924;-76
2022/01/12 03:13:33;;;;;;;;;;;3.90;99.90;;;;;;5033479;28;19929;-76
2022/01/12 03:15:58;;;;;;;;;;;4.00;99.90;;;;;;5023595;28;20243;-76
2022/01/12 03:18:24;;;;;;;;;;;4.00;99.90;;;;;;5033837;28;19920;-76
2022/01/12 03:20:49;;;;;;;;;;;4.00;99.90;;;;;;5021394;28;20293;-76
2022/01/12 03:23:16;;;;;;;;;;;4.00;99.90;;;;;;5007474;28;19929;-75
2022/01/12 03:25:41;;;;;;;;;;;4.00;99.90;;;;;;4992128;28;20229;-77
2022/01/12 03:28:07;;;;;;;;;;;4.00;99.90;;;;;;5007230;28;19921;-76
2022/01/12 03:30:46;;;;;;;;;;;4.00;99.90;;;;;;5009451;28;19921;-76
2022/01/12 03:38:41;;;;;;;;;;;4.10;99.90;;;;;;5011021;28;20359;-76
2022/01/12 03:41:07;;;;;;;;;;;4.00;99.90;;;;;;5007842;28;19929;-76
2022/01/12 03:43:33;;;;;;;;;;;4.00;99.90;;;;;;5011238;28;20213;-76
2022/01/12 03:45:58;;;;;;;;;;;4.00;99.90;;;;;;5012878;28;19929;-76
2022/01/12 03:48:24;;;;;;;;;;;4.00;99.90;;;;;;5013155;28;19921;-76
2022/01/12 03:50:49;;;;;;;;;;;4.00;99.90;;;;;;5013390;28;19921;-76
2022/01/12 03:53:16;;;;;;;;;;;4.00;99.90;;;;;;5013289;28;20000;-75
2022/01/12 03:55:43;;;;;;;;;;;4.10;99.90;;;;;;5013089;28;19921;-76
2022/01/12 03:58:10;;;;;;;;;;;4.10;99.90;;;;;;5012823;28;20007;-75
2022/01/12 04:00:36;;;;;;;;;;;4.10;99.90;;;;;;5014007;28;19920;-76
2022/01/12 04:03:05;;;;;;;;;;;4.10;99.90;;;;;;5013740;28;19913;-76
2022/01/12 04:08:19;;;;;;;;;;;4.10;99.90;;;;;;5013305;28;19924;-76
2022/01/12 04:10:45;;;;;;;;;;;4.00;99.90;;;;;;5012084;28;19921;-76
2022/01/12 04:13:11;;;;;;;;;;;4.00;99.90;;;;;;5011304;28;20033;-76
2022/01/12 04:15:37;;;;;;;;;;;4.00;99.90;;;;;;5010227;28;20366;-75
2022/01/12 04:18:02;;;;;;;;;;;4.00;99.90;;;;;;5009051;28;20340;-76
2022/01/12 04:20:28;;;;;;;;;;;4.00;99.90;;;;;;5008779;28;19921;-76
2022/01/12 04:25:38;;;;;;;;;;;3.90;99.90;;;;;;5028138;28;20328;-76
2022/01/12 04:28:04;;;;;;;;;;;3.90;99.90;;;;;;5028268;28;19917;-76
2022/01/12 04:30:29;;;;;;;;;;;3.90;99.90;;;;;;5028320;28;20230;-76
2022/01/12 04:32:55;;;;;;;;;;;3.90;99.90;;;;;;5025518;28;19917;-76
2022/01/12 04:35:24;;;;;;;;;;;3.90;99.90;;;;;;5026608;28;20372;-76
2022/01/12 04:37:50;;;;;;;;;;;3.90;99.90;;;;;;5026588;28;19917;-76
2022/01/12 04:40:16;;;;;;;;;;;3.90;99.90;;;;;;5031302;28;20007;-75
2022/01/12 04:42:42;;;;;;;;;;;3.90;99.90;;;;;;5029494;28;20008;-75
2022/01/12 04:50:23;;;;;;;;;;;3.90;99.90;;;;;;5031860;28;19913;-76
2022/01/12 04:52:49;;;;;;;;;;;3.90;99.90;;;;;;5029199;28;20201;-76
2022/01/12 04:55:15;;;;;;;;;;;4.00;99.90;;;;;;5040257;28;19924;-75
2022/01/12 04:57:41;;;;;;;;;;;4.00;99.90;;;;;;5030438;28;19917;-76
2022/01/12 05:00:14;;;;;;;;;;;4.00;99.90;;;;;;5035395;28;19924;-77
2022/01/12 05:08:15;;;;;;;;;;;3.90;99.90;;;;;;5031946;28;19940;-76
2022/01/12 05:13:26;;;;;;;;;;;3.90;99.90;;;;;;5031405;28;19936;-76
2022/01/12 05:15:52;;;;;;;;;;;4.00;99.90;;;;;;5038048;28;19917;-76
2022/01/12 05:18:18;;;;;;;;;;;4.00;99.90;;;;;;5031477;28;19920;-76
2022/01/12 05:20:44;;;;;;;;;;;4.00;99.90;;;;;;5031314;28;19974;-75
2022/01/12 05:23:10;;;;;;;;;;;4.00;99.90;;;;;;5016222;28;20003;-76
2022/01/12 05:25:36;;;;;;;;;;;4.00;99.90;;;;;;5025387;28;19926;-76
2022/01/12 05:28:01;;;;;;;;;;;4.00;99.90;;;;;;5025011;28;19917;-76
2022/01/12 05:30:27;;;;;;;;;;;4.00;99.90;;;;;;5036626;28;19917;-76
2022/01/12 05:32:53;;;;;;;;;;;4.00;99.90;;;;;;5038158;28;19923;-76
2022/01/12 05:35:20;;;;;;;;;;;4.10;99.90;;;;;;5047523;28;19955;-76
2022/01/12 05:37:46;;;;;;;;;;;4.20;99.90;;;;;;5047898;28;19943;-76
2022/01/12 05:40:13;;;;;;;;;;;4.10;99.90;;;;;;5044411;28;19967;-75
2022/01/12 05:42:38;;;;;;;;;;;4.20;99.90;;;;;;5029119;28;19920;-76
2022/01/12 05:45:05;;;;;;;;;;;4.10;99.90;;;;;;5029670;28;20328;-76
2022/01/12 05:50:03;;;;;;;;;;;4.10;99.90;;;;;;5028993;28;20013;-76
2022/01/12 05:52:28;;;;;;;;;;;4.10;99.90;;;;;;5035884;28;20072;-76
2022/01/12 05:54:54;;;;;;;;;;;4.10;99.90;;;;;;5042118;28;20453;-76
2022/01/12 05:57:19;;;;;;;;;;;4.10;99.90;;;;;;5047072;28;19912;-76
2022/01/12 05:59:45;;;;;;;;;;;4.00;99.90;;;;;;5032928;28;19967;-76
2022/01/12 06:02:11;;;;;;;;;;;4.10;99.90;;;;;;5033502;28;20229;-76
2022/01/12 06:04:36;;;;;;;;;;;4.00;99.90;;;;;;5014701;28;20300;-76
2022/01/12 06:07:02;;;;;;;;;;;4.00;99.90;;;;;;5039881;28;20172;-76
2022/01/12 06:09:28;;;;;;;;;;;4.00;99.90;;;;;;5031368;28;19913;-76
2022/01/12 06:11:53;;;;;;;;;;;4.00;99.90;;;;;;5020607;28;19925;-76
2022/01/12 06:14:20;;;;;;;;;;;4.00;99.90;;;;;;5021887;28;19983;-76
2022/01/12 06:16:46;;;;;;;;;;;4.00;99.90;;;;;;5035940;28;19956;-76
2022/01/12 06:19:12;;;;;;;;;;;4.00;99.90;;;;;;5036111;28;19971;-76
2022/01/12 06:21:37;;;;;;;;;;;4.10;99.90;;;;;;5041064;28;19929;-76
2022/01/12 06:24:03;;;;;;;;;;;4.10;99.90;;;;;;5039482;28;20363;-76
2022/01/12 06:26:29;;;;;;;;;;;4.00;99.90;;;;;;5046477;28;19925;-75
2022/01/12 06:29:42;;;;;;;;;;;3.90;99.90;;;;;;5038794;28;19918;-76
2022/01/12 06:31:42;;;;;;;;;;;3.80;99.90;;;;;;5030604;28;19921;-75
2022/01/12 06:34:07;;;;;;;;;;;3.80;99.90;;;;;;5036524;28;19943;-76
2022/01/12 06:36:33;;;;;;;;;;;3.80;99.90;;;;;;5041801;28;20300;-75
2022/01/12 06:38:59;;;;;;;;;;;3.80;99.90;;;;;;5033436;28;19921;-76
2022/01/12 06:41:24;;;;;;;;;;;3.90;99.90;;;;;;5033038;28;19921;-76
2022/01/12 06:43:50;;;;;;;;;;;3.90;99.90;;;;;;5023362;28;19924;-76
2022/01/12 06:46:21;;;;;;;;;;;3.90;99.90;;;;;;5027272;28;19917;-76
2022/01/12 06:48:47;;;;;;;;;;;4.00;99.90;;;;;;5029651;28;19963;-76
2022/01/12 06:51:13;;;;;;;;;;;4.00;99.90;;;;;;5034353;28;20305;-75
2022/01/12 06:53:38;;;;;;;;;;;4.00;99.90;;;;;;5033263;28;19979;-75
2022/01/12 06:56:04;;;;;;;;;;;3.90;99.90;;;;;;5031054;28;19917;-75
2022/01/12 06:58:29;;;;;;;;;;;3.90;99.90;;;;;;5035568;28;19917;-75
2022/01/12 07:00:55;;;;;;;;;;;3.80;99.90;;;;;;5023154;28;20059;-76
2022/01/12 07:03:21;;;;;;;;;;;3.80;99.90;;;;;;5037506;28;20212;-75
2022/01/12 07:05:47;;;;;;;;;;;3.80;99.90;;;;;;5031089;28;20020;-76
2022/01/12 07:08:13;;;;;;;;;;;3.70;99.90;;;;;;5028210;28;19929;-76
2022/01/12 07:10:39;;;;;;;;;;;3.70;99.90;;;;;;5036530;28;19921;-75
2022/01/12 07:13:04;;;;;;;;;;;3.80;99.90;;;;;;5026467;28;20232;-75
2022/01/12 07:15:30;;;;;;;;;;;3.80;99.90;;;;;;5033047;28;20027;-76
2022/01/12 07:18:01;;;;;;;;;;;3.80;99.90;;;;;;5018939;28;19933;-76
2022/01/12 07:20:26;;;;;;;;;;;3.90;99.90;;;;;;5025736;28;19929;-76
2022/01/12 07:22:52;;;;;;;;;;;3.90;99.90;;;;;;5020272;28;19925;-76
2022/01/12 07:25:18;;;;;;;;;;;3.90;99.90;;;;;;5027483;28;19921;-76
2022/01/12 07:27:43;;;;;;;;;;;3.90;99.90;;;;;;5032075;28;20047;-75
2022/01/12 07:30:09;;;;;;;;;;;3.90;99.90;;;;;;5024487;28;19925;-76
2022/01/12 07:32:35;;;;;;;;;;;3.90;99.90;;;;;;5022199;28;20229;-75
2022/01/12 07:35:00;;;;;;;;;;;3.90;99.90;;;;;;5013232;28;20325;-76
2022/01/12 07:37:26;;;;;;;;;;;3.80;99.90;;;;;;5023762;28;20239;-76
2022/01/12 07:39:51;;;;;;;;;;;3.90;99.90;;;;;;5023312;28;19913;-76
2022/01/12 07:42:17;;;;;;;;;;;3.90;99.90;;;;;;5022115;28;21134;-77
2022/01/12 07:44:43;;;;;;;;;;;3.90;99.90;;;;;;5022406;28;19913;-76
2022/01/12 07:47:09;;;;;;;;;;;3.90;99.90;;;;;;5026262;28;19967;-76
2022/01/12 07:49:36;;;;;;;;;;;3.90;99.90;;;;;;5041723;28;19945;-75
2022/01/12 07:52:03;;;;;;;;;;;3.90;99.90;;;;;;5043635;28;19927;-76
2022/01/12 07:54:28;;;;;;;;;;;3.90;99.90;;;;;;5042949;28;19917;-76
2022/01/12 07:56:54;;;;;;;;;;;3.80;99.90;;;;;;5044010;28;19955;-76
2022/01/12 07:59:19;;;;;;;;;;;3.80;99.90;;;;;;5042125;28;19916;-76
2022/01/12 08:01:45;;;;;;;;;;;3.80;99.90;;;;;;5025202;28;19912;-76
2022/01/12 08:04:11;;;;;;;;;;;3.70;99.90;;;;;;5041651;28;19952;-77
2022/01/12 08:06:36;;;;;;;;;;;3.70;99.90;;;;;;5040545;28;19912;-76
2022/01/12 08:09:02;;;;;;;;;;;3.70;99.90;;;;;;5043289;28;19917;-76
2022/01/12 08:11:29;;;;;;;;;;;3.60;99.90;;;;;;5026021;28;19921;-77
2022/01/12 08:13:54;;;;;;;;;;;3.50;99.90;;;;;;5042351;28;20019;-77
2022/01/12 08:16:20;;;;;;;;;;;3.40;99.90;;;;;;5046086;28;20007;-76
2022/01/12 08:18:46;;;;;;;;;;;3.50;99.90;;;;;;5047395;28;19936;-76
2022/01/12 08:21:11;;;;;;;;;;;3.50;99.90;;;;;;5049424;28;20441;-76
2022/01/12 08:23:37;;;;;;;;;;;3.60;99.90;;;;;;5048902;28;19929;-76
2022/01/12 08:26:02;;;;;;;;;;;3.60;99.90;;;;;;5042124;28;19913;-75
2022/01/12 08:28:28;;;;;;;;;;;3.70;99.90;;;;;;5034250;28;19937;-76
2022/01/12 08:30:53;;;;;;;;;;;3.70;99.90;;;;;;5022776;28;19931;-76
2022/01/12 08:33:19;;;;;;;;;;;3.70;99.90;;;;;;5024955;28;20684;-76
2022/01/12 08:35:45;;;;;;;;;;;3.70;99.90;;;;;;5012452;28;19968;-77
2022/01/12 08:38:10;;;;;;;;;;;3.80;99.90;;;;;;5036734;28;20003;-76
2022/01/12 08:40:38;;;;;;;;;;;3.90;99.90;;;;;;5039875;28;19916;-77
2022/01/12 08:43:05;;;;;;;;;;;3.90;99.90;;;;;;5038372;28;20046;-76
2022/01/12 08:45:30;;;;;;;;;;;4.00;99.90;;;;;;5037868;28;20036;-76
2022/01/12 08:47:56;;;;;;;;;;;3.90;99.90;;;;;;5016837;28;20120;-77
2022/01/12 08:50:22;;;;;;;;;;;3.90;99.90;;;;;;5038888;28;20220;-76
2022/01/12 08:52:48;;;;;;;;;;;3.90;99.90;;;;;;5036260;28;21346;-75
2022/01/12 08:55:15;;;;;;;;;;;4.00;99.90;;;;;;5022703;28;19918;-76
2022/01/12 08:57:41;;;;;;;;;;;4.00;99.90;;;;;;5032363;28;20338;-77
2022/01/12 09:00:07;;;;;;;;;;;4.10;99.90;;;;;;5037090;28;19917;-77
2022/01/12 09:02:33;;;;;;;;;;;4.10;99.90;;;;;;5023243;28;19917;-76
2022/01/12 09:04:58;;;;;;;;;;;4.10;99.90;;;;;;5036824;28;19924;-76
2022/01/12 09:07:24;;;;;;;;;;;4.10;99.90;;;;;;5035728;28;19923;-76
2022/01/12 09:09:49;;;;;;;;;;;4.10;99.90;;;;;;5034386;28;19917;-76
2022/01/12 09:12:15;;;;;;;;;;;4.00;99.90;;;;;;5034413;28;20332;-77
2022/01/12 09:14:40;;;;;;;;;;;3.90;99.90;;;;;;5035074;28;19921;-76
2022/01/12 09:17:12;;;;;;;;;;;3.90;99.90;;;;;;5023440;28;19943;-77
2022/01/12 09:19:37;;;;;;;;;;;4.00;99.90;;;;;;5034845;28;19924;-77
2022/01/12 09:22:03;;;;;;;;;;;4.00;99.90;;;;;;5035227;28;20132;-75
2022/01/12 09:24:29;;;;;;;;;;;4.00;99.90;;;;;;5029214;28;19921;-76
2022/01/12 09:26:54;;;;;;;;;;;4.00;99.90;;;;;;5029498;28;20027;-76
2022/01/12 09:29:20;;;;;;;;;;;4.10;99.90;;;;;;5018681;28;19921;-76
2022/01/12 09:31:46;;;;;;;;;;;4.10;99.90;;;;;;5037362;28;20413;-76
2022/01/12 09:34:11;;;;;;;;;;;4.10;99.90;;;;;;5028199;28;19927;-76
2022/01/12 09:36:37;;;;;;;;;;;4.10;99.90;;;;;;5028329;28;19921;-76
2022/01/12 09:39:03;;;;;;;;;;;4.20;99.90;;;;;;5011522;28;19913;-75
2022/01/12 09:41:29;;;;;;;;;;;4.20;99.90;;;;;;5027842;28;19960;-76
2022/01/12 09:43:55;;;;;;;;;;;4.20;99.90;;;;;;5024342;28;19976;-77
2022/01/12 09:46:25;;;;;;;;;;;4.20;99.90;;;;;;5028821;28;19927;-77
2022/01/12 09:48:51;;;;;;;;;;;4.30;99.90;;;;;;5029127;28;19924;-77
2022/01/12 09:51:17;;;;;;;;;;;4.30;99.90;;;;;;5040573;28;20475;-77
2022/01/12 09:53:44;;;;;;;;;;;4.40;99.90;;;;;;5028969;28;19971;-77
2022/01/12 09:56:17;;;;;;;;;;;4.40;99.90;;;;;;5028142;28;20000;-77
2022/01/12 09:58:46;;;;;;;;;;;4.50;99.90;;;;;;5027368;28;21228;-77
2022/01/12 10:01:12;;;;;;;;;;;4.60;99.90;;;;;;5029487;28;19913;-79
2022/01/12 10:03:37;;;;;;;;;;;4.50;99.90;;;;;;5028205;28;20213;-77
2022/01/12 10:06:13;;;;;;;;;;;4.50;99.90;;;;;;5041599;28;19928;-77
2022/01/12 10:08:39;;;;;;;;;;;4.60;99.90;;;;;;5028609;28;20409;-75
2022/01/12 10:11:06;;;;;;;;;;;4.60;99.90;;;;;;5027173;28;20000;-77
2022/01/12 10:13:32;;;;;;;;;;;4.60;99.90;;;;;;5029013;28;19917;-77
2022/01/12 10:16:08;;;;;;;;;;;4.60;99.90;;;;;;5027579;28;19928;-76
2022/01/12 10:18:42;;;;;;;;;;;4.60;99.90;;;;;;5028771;28;19921;-76
2022/01/12 10:21:09;;;;;;;;;;;4.60;99.90;;;;;;5026715;28;19921;-76
2022/01/12 10:23:38;;;;;;;;;;;4.60;99.90;;;;;;5021227;28;19922;-76
2022/01/12 10:26:04;;;;;;;;;;;4.70;99.90;;;;;;5020044;28;20143;-76
2022/01/12 10:28:30;;;;;;;;;;;4.70;99.90;;;;;;5020493;28;20344;-75
2022/01/12 10:30:56;;;;;;;;;;;4.80;99.90;;;;;;5015128;28;20060;-75
2022/01/12 10:33:23;;;;;;;;;;;4.90;99.90;;;;;;5017486;28;20213;-76
2022/01/12 10:35:49;;;;;;;;;;;4.90;99.90;;;;;;5019382;28;19932;-76
2022/01/12 10:38:16;;;;;;;;;;;5.00;99.90;;;;;;5020593;28;19921;-76
2022/01/12 10:40:53;;;;;;;;;;;5.00;99.90;;;;;;5003844;28;19926;-76
2022/01/12 10:43:27;;;;;;;;;;;5.10;99.90;;;;;;5016302;28;19921;-75
2022/01/12 10:45:53;;;;;;;;;;;5.00;99.90;;;;;;5014761;28;20299;-75
2022/01/12 10:48:19;;;;;;;;;;;5.00;99.90;;;;;;5020271;28;19921;-76
2022/01/12 10:50:57;;;;;;;;;;;5.00;99.90;;;;;;5018273;28;20460;-76
2022/01/12 10:53:31;;;;;;;;;;;4.90;99.90;;;;;;5007427;28;19918;-76
2022/01/12 10:56:08;;;;;;;;;;;4.90;99.90;;;;;;5010563;28;19917;-75
2022/01/12 10:58:33;;;;;;;;;;;4.90;99.90;;;;;;5013267;28;20430;-76
2022/01/12 11:00:59;;;;;;;;;;;4.90;99.90;;;;;;5022273;28;19949;-76
2022/01/12 11:03:25;;;;;;;;;;;4.90;99.90;;;;;;5023284;28;20407;-76
2022/01/12 11:05:52;;;;;;;;;;;5.00;99.90;;;;;;5011805;28;19949;-76
2022/01/12 11:08:18;;;;;;;;;;;5.00;99.90;;;;;;5022684;28;20598;-76
2022/01/12 11:10:45;;;;;;;;;;;5.10;99.90;;;;;;5012508;28;19917;-75
2022/01/12 11:13:11;;;;;;;;;;;5.10;99.90;;;;;;5015714;28;19921;-75
2022/01/12 11:15:37;;;;;;;;;;;5.10;99.90;;;;;;5015028;28;19924;-77
2022/01/12 11:18:03;;;;;;;;;;;5.10;99.90;;;;;;5017725;28;19917;-76
2022/01/12 11:20:33;;;;;;;;;;;5.20;99.90;;;;;;5009899;28;19996;-76
2022/01/12 11:23:06;;;;;;;;;;;5.30;99.90;;;;;;5035637;28;19929;-76
2022/01/12 11:25:37;;;;;;;;;;;5.40;99.90;;;;;;5037684;28;19924;-75
2022/01/12 11:28:21;;;;;;;;;;;5.40;99.90;;;;;;5011568;28;20005;-76
2022/01/12 11:30:50;;;;;;;;;;;5.40;99.90;;;;;;5032343;28;19913;-76
2022/01/12 11:33:17;;;;;;;;;;;5.40;99.90;;;;;;5022400;28;20019;-76
2022/01/12 11:35:49;;;;;;;;;;;5.40;99.90;;;;;;5022762;28;20392;-76
2022/01/12 11:38:26;;;;;;;;;;;5.30;99.90;;;;;;5032099;28;19924;-76
2022/01/12 11:40:54;;;;;;;;;;;5.30;99.90;;;;;;5026364;28;19919;-76
2022/01/12 11:43:29;;;;;;;;;;;5.40;99.90;;;;;;5030996;28;20334;-76
2022/01/12 11:46:05;;;;;;;;;;;5.40;99.90;;;;;;5038012;28;19919;-76
2022/01/12 11:48:32;;;;;;;;;;;5.50;99.90;;;;;;5036966;28;20335;-75
2022/01/12 11:50:58;;;;;;;;;;;5.50;99.90;;;;;;5042608;28;20027;-76
2022/01/12 11:53:23;;;;;;;;;;;5.60;99.90;;;;;;5045603;28;20011;-76
2022/01/12 11:55:49;;;;;;;;;;;5.60;99.90;;;;;;5044492;28;19943;-75
2022/01/12 11:58:18;;;;;;;;;;;5.60;99.90;;;;;;5045278;28;19974;-76
2022/01/12 12:00:44;;;;;;;;;;;5.60;99.90;;;;;;5045569;28;19920;-76
2022/01/12 12:03:17;;;;;;;;;;;5.60;99.90;;;;;;5044419;28;19942;-76
2022/01/12 12:05:44;;;;;;;;;;;5.60;99.90;;;;;;5042737;28;19971;-76
2022/01/12 12:08:09;;;;;;;;;;;5.60;99.90;;;;;;5046009;28;19944;-76
2022/01/12 12:10:37;;;;;;;;;;;5.60;99.90;;;;;;5040770;28;20449;-76
2022/01/12 12:13:03;;;;;;;;;;;5.60;99.90;;;;;;5048265;28;19999;-76
2022/01/12 12:15:29;;;;;;;;;;;5.60;99.90;;;;;;5042379;28;19921;-77
2022/01/12 12:17:58;;;;;;;;;;;5.60;99.90;;;;;;5041814;28;19917;-77
2022/01/12 12:20:24;;;;;;;;;;;5.60;99.90;;;;;;5048095;28;19912;-77
2022/01/12 12:22:50;;;;;;;;;;;5.60;99.90;;;;;;5044319;28;20347;-76
2022/01/12 12:25:22;;;;;;;;;;;5.60;99.90;;;;;;5042842;28;20006;-76
2022/01/12 12:27:54;;;;;;;;;;;5.60;99.90;;;;;;5032821;28;19921;-76
2022/01/12 12:30:21;;;;;;;;;;;5.60;99.90;;;;;;5043374;28;20024;-76
2022/01/12 12:32:49;;;;;;;;;;;5.70;99.90;;;;;;5043268;28;19921;-77
2022/01/12 12:35:16;;;;;;;;;;;5.60;99.90;;;;;;5026256;28;19924;-76
2022/01/12 12:37:44;;;;;;;;;;;5.60;99.90;;;;;;5043879;28;19921;-77
2022/01/12 12:40:14;;;;;;;;;;;5.60;99.90;;;;;;5030712;28;19916;-76
2022/01/12 12:42:40;;;;;;;;;;;5.60;99.90;;;;;;5039995;28;19916;-76
2022/01/12 12:45:08;;;;;;;;;;;5.60;99.90;;;;;;5027728;28;19925;-76
2022/01/12 12:47:34;;;;;;;;;;;5.70;99.90;;;;;;5022810;28;19928;-76
2022/01/12 12:50:03;;;;;;;;;;;5.70;99.90;;;;;;5030151;28;19917;-79
2022/01/12 12:52:30;;;;;;;;;;;5.70;99.90;;;;;;5020914;28;19925;-76
2022/01/12 12:54:57;;;;;;;;;;;5.80;99.90;;;;;;5042914;28;20063;-76
2022/01/12 12:57:24;;;;;;;;;;;5.80;99.90;;;;;;5042337;28;19914;-76
2022/01/12 12:59:51;;;;;;;;;;;5.90;99.90;;;;;;5045409;28;19997;-76
2022/01/12 13:02:17;;;;;;;;;;;5.90;99.90;;;;;;5023759;28;19917;-76
2022/01/12 13:04:43;;;;;;;;;;;5.90;99.90;;;;;;5037467;28;19927;-76
2022/01/12 13:07:17;;;;;;;;;;;5.90;99.90;;;;;;5029074;28;19936;-76
2022/01/12 13:09:43;;;;;;;;;;;5.90;99.90;;;;;;5047956;28;19917;-76
2022/01/12 13:12:09;;;;;;;;;;;5.90;99.90;;;;;;5050082;28;20189;-76
2022/01/12 13:14:42;;;;;;;;;;;5.90;99.90;;;;;;5047023;28;19919;-76
2022/01/12 13:17:08;;;;;;;;;;;5.90;99.90;;;;;;5048993;28;19956;-76
2022/01/12 13:21:07;;;;;;;;;;;5.80;99.90;;;;;;5036704;28;19952;-76
2022/01/12 13:22:25;;;;;;;;;;;5.80;99.90;;;;;;5039678;28;19929;-76
2022/01/12 13:24:51;;;;;;;;;;;5.70;99.90;;;;;;5038720;28;19917;-77
2022/01/12 13:27:17;;;;;;;;;;;5.70;99.90;;;;;;5033354;28;20232;-76
2022/01/12 13:29:46;;;;;;;;;;;5.70;99.90;;;;;;5045755;28;20004;-76
2022/01/12 13:32:12;;;;;;;;;;;5.70;99.90;;;;;;5028340;28;19917;-76
2022/01/12 13:34:42;;;;;;;;;;;5.80;99.90;;;;;;5041761;28;19928;-75
2022/01/12 13:37:12;;;;;;;;;;;5.70;99.90;;;;;;5039184;28;19921;-76
2022/01/12 13:39:38;;;;;;;;;;;5.70;99.90;;;;;;5043429;28;20303;-76
2022/01/12 13:42:04;;;;;;;;;;;5.70;99.90;;;;;;5047994;28;19915;-76
2022/01/12 13:44:29;;;;;;;;;;;5.70;99.90;;;;;;5050273;28;20506;-76
2022/01/12 13:47:10;;;;;;;;;;;5.60;99.90;;;;;;5032744;28;20016;-76
2022/01/12 13:49:36;;;;;;;;;;;5.60;99.90;;;;;;5049494;28;19913;-77
2022/01/12 13:52:05;;;;;;;;;;;5.60;99.90;;;;;;5050014;28;19923;-76
2022/01/12 13:54:35;;;;;;;;;;;5.60;99.90;;;;;;5049662;28;19917;-76
2022/01/12 13:57:01;;;;;;;;;;;5.60;99.90;;;;;;5049774;28;20622;-76
2022/01/12 13:59:29;;;;;;;;;;;5.60;99.90;;;;;;5038202;28;19913;-76
2022/01/12 14:01:56;;;;;;;;;;;5.60;99.90;;;;;;5045383;28;19913;-76
2022/01/12 14:04:27;;;;;;;;;;;5.60;99.90;;;;;;5038540;28;19961;-76
2022/01/12 14:06:54;;;;;;;;;;;5.50;99.90;;;;;;5043029;28;19913;-77
2022/01/12 14:11:50;;;;;;;;;;;5.50;99.90;;;;;;5025869;28;20046;-77
2022/01/12 14:14:17;;;;;;;;;;;5.50;99.90;;;;;;5033171;28;19971;-77
2022/01/12 14:16:43;;;;;;;;;;;5.40;99.90;;;;;;5012774;28;19971;-77
2022/01/12 14:19:09;;;;;;;;;;;5.40;99.90;;;;;;5021585;28;19916;-76
2022/01/12 14:21:35;;;;;;;;;;;5.30;99.90;;;;;;4992634;28;19979;-76
2022/01/12 14:24:04;;;;;;;;;;;5.40;99.90;;;;;;5025006;28;19921;-76
2022/01/12 14:26:34;;;;;;;;;;;5.30;99.90;;;;;;5039807;28;19967;-77
2022/01/12 14:29:00;;;;;;;;;;;5.30;99.90;;;;;;5028696;28;19913;-76
2022/01/12 14:31:26;;;;;;;;;;;5.30;99.90;;;;;;5040656;28;19917;-77
2022/01/12 14:33:52;;;;;;;;;;;5.30;99.90;;;;;;5038807;28;20296;-77
2022/01/12 14:36:18;;;;;;;;;;;5.30;99.90;;;;;;5019733;28;19921;-77
2022/01/12 14:38:44;;;;;;;;;;;5.30;99.90;;;;;;5028855;28;20591;-78
2022/01/12 14:41:10;;;;;;;;;;;5.30;99.90;;;;;;5028906;28;19920;-77
2022/01/12 14:43:36;;;;;;;;;;;5.30;99.90;;;;;;5040845;28;20003;-76
2022/01/12 14:46:01;;;;;;;;;;;5.30;99.90;;;;;;5039866;28;19955;-76
2022/01/12 14:48:27;;;;;;;;;;;5.20;99.90;;;;;;5038743;28;19917;-76
2022/01/12 14:50:53;;;;;;;;;;;5.30;99.90;;;;;;5015911;28;19963;-78
2022/01/12 14:53:21;;;;;;;;;;;5.30;99.90;;;;;;5014228;28;19917;-77
2022/01/12 14:55:48;;;;;;;;;;;5.20;99.90;;;;;;5028857;28;19924;-77
2022/01/12 14:58:14;;;;;;;;;;;5.10;99.90;;;;;;5038752;28;19925;-76
2022/01/12 15:00:40;;;;;;;;;;;5.10;99.90;;;;;;5043974;28;20003;-76
2022/01/12 15:03:06;;;;;;;;;;;5.10;99.90;;;;;;5047732;28;20007;-76
2022/01/12 15:05:32;;;;;;;;;;;5.10;99.90;;;;;;5047080;28;19967;-76
2022/01/12 15:07:58;;;;;;;;;;;5.20;99.90;;;;;;5046778;28;19924;-76
2022/01/12 15:10:27;;;;;;;;;;;5.10;99.90;;;;;;5030333;28;19912;-78
2022/01/12 15:12:55;;;;;;;;;;;5.00;99.90;;;;;;5037586;28;20380;-76
2022/01/12 15:15:21;;;;;;;;;;;5.00;99.90;;;;;;5026419;28;20003;-78
2022/01/12 15:17:46;;;;;;;;;;;5.00;99.90;;;;;;5042107;28;20268;-76
2022/01/12 15:20:17;;;;;;;;;;;5.00;99.90;;;;;;5025259;28;19921;-76
2022/01/12 15:22:47;;;;;;;;;;;5.00;99.90;;;;;;5037501;28;19947;-77
2022/01/12 15:25:13;;;;;;;;;;;5.00;99.90;;;;;;5040394;28;20399;-77
2022/01/12 15:27:39;;;;;;;;;;;5.00;99.90;;;;;;5008685;28;19917;-77
2022/01/12 15:30:06;;;;;;;;;;;5.00;99.90;;;;;;5037034;28;20346;-76
2022/01/12 15:32:31;;;;;;;;;;;5.00;99.90;;;;;;5026966;28;19948;-76
2022/01/12 15:34:57;;;;;;;;;;;5.00;99.90;;;;;;5034605;28;19917;-77
2022/01/12 15:37:23;;;;;;;;;;;5.00;99.90;;;;;;5043766;28;19963;-77
2022/01/12 15:39:49;;;;;;;;;;;5.00;99.90;;;;;;5026693;28;20004;-77
2022/01/12 15:42:15;;;;;;;;;;;5.00;99.90;;;;;;5026667;28;19928;-76
2022/01/12 15:44:40;;;;;;;;;;;5.00;99.90;;;;;;5037325;28;19917;-76
2022/01/12 15:47:07;;;;;;;;;;;5.00;99.90;;;;;;5026939;28;19960;-76
2022/01/12 15:49:33;;;;;;;;;;;5.00;99.90;;;;;;5026604;28;19920;-77
2022/01/12 15:52:00;;;;;;;;;;;5.00;99.90;;;;;;5014412;28;19921;-78